Time;durP1;ratioP1;P1;durP2;ratioP2;P2;SDS_P1;SDS_P2;PMS_P1;PMS_P2;Temp;Humidity;BMP_temperature;BMP_pressure;BME280_temperature;BME280_humidity;BME280_pressure;Samples;Min_cycle;Max_cycle;Signal;HPM_P1;HPM_P2
2022/08/31 00:05:27;;;;;;;2.90;1.40;;;15.90;99.90;;;;;;5133953;27;20440;-58
2022/08/31 00:07:54;;;;;;;1.73;1.30;;;15.90;99.90;;;;;;5133781;27;21017;-58
2022/08/31 00:10:24;;;;;;;1.30;1.10;;;15.90;99.90;;;;;;5133994;27;20467;-58
2022/08/31 00:12:51;;;;;;;3.00;1.50;;;15.80;99.90;;;;;;5133936;28;20441;-58
2022/08/31 00:15:22;;;;;;;1.60;1.30;;;15.70;99.90;;;;;;5133780;28;20536;-58
2022/08/31 00:17:49;;;;;;;3.77;1.60;;;15.50;99.90;;;;;;5133747;28;20773;-58
2022/08/31 00:20:17;;;;;;;1.20;1.10;;;15.20;99.90;;;;;;5133669;28;20445;-58
2022/08/31 00:22:43;;;;;;;3.13;1.50;;;15.20;99.90;;;;;;5133873;28;20441;-58
2022/08/31 00:25:10;;;;;;;1.30;1.20;;;15.20;99.90;;;;;;5133759;28;20447;-59
2022/08/31 00:27:37;;;;;;;2.70;1.47;;;14.90;99.90;;;;;;5133719;28;20487;-58
2022/08/31 00:30:07;;;;;;;2.23;1.40;;;14.80;99.90;;;;;;5133671;28;20445;-58
2022/08/31 00:32:34;;;;;;;5.03;1.50;;;14.90;99.90;;;;;;5133629;28;20758;-58
2022/08/31 00:35:01;;;;;;;2.53;1.37;;;14.90;99.90;;;;;;5133737;28;20538;-58
2022/08/31 00:37:28;;;;;;;1.47;1.10;;;14.90;99.90;;;;;;5133782;28;20894;-58
2022/08/31 00:39:54;;;;;;;3.00;1.53;;;14.80;99.90;;;;;;5133653;28;20451;-56
2022/08/31 00:42:22;;;;;;;2.07;1.87;;;14.70;99.90;;;;;;5133588;28;20536;-58
2022/08/31 00:44:48;;;;;;;2.53;1.37;;;14.60;99.90;;;;;;5133447;28;20440;-58
2022/08/31 00:47:15;;;;;;;1.93;1.57;;;14.60;99.90;;;;;;5133138;27;20490;-58
2022/08/31 00:49:48;;;;;;;1.73;1.30;;;14.50;99.90;;;;;;5133670;28;20514;-58
2022/08/31 00:52:18;;;;;;;3.57;1.70;;;14.50;99.90;;;;;;5133639;28;20448;-58
2022/08/31 00:54:47;;;;;;;2.13;1.40;;;14.40;99.90;;;;;;5133533;28;20441;-58
2022/08/31 00:57:15;;;;;;;1.37;1.27;;;14.40;99.90;;;;;;5133423;28;20883;-57
2022/08/31 00:59:44;;;;;;;1.30;1.20;;;14.40;99.90;;;;;;5133392;28;20444;-58
2022/08/31 01:02:10;;;;;;;1.60;1.40;;;14.50;99.90;;;;;;5133301;28;20830;-56
2022/08/31 01:04:37;;;;;;;1.57;1.47;;;14.60;99.90;;;;;;5133236;28;20449;-58
2022/08/31 01:07:07;;;;;;;2.37;1.33;;;14.80;99.90;;;;;;5133675;27;20487;-58
2022/08/31 01:09:36;;;;;;;1.63;1.17;;;14.90;99.90;;;;;;5137222;27;20455;-58
2022/08/31 01:12:05;;;;;;;1.73;1.23;;;15.00;99.90;;;;;;5137133;27;20850;-58
2022/08/31 01:14:32;;;;;;;1.77;1.40;;;15.10;99.90;;;;;;5136840;27;20444;-58
2022/08/31 01:16:59;;;;;;;1.67;1.40;;;15.20;99.90;;;;;;5137171;27;20445;-58
2022/08/31 01:19:32;;;;;;;4.30;1.20;;;15.30;99.90;;;;;;5137075;27;20823;-58
2022/08/31 01:22:04;;;;;;;2.60;1.30;;;15.30;99.90;;;;;;5136955;27;20795;-58
2022/08/31 01:24:33;;;;;;;1.63;1.33;;;15.40;99.90;;;;;;5136851;27;20799;-58
2022/08/31 01:27:03;;;;;;;1.60;1.50;;;15.50;99.90;;;;;;5137137;27;20468;-58
2022/08/31 01:29:30;;;;;;;2.73;1.47;;;15.60;99.90;;;;;;5136880;27;20451;-58
2022/08/31 01:31:57;;;;;;;2.13;1.60;;;15.50;99.90;;;;;;5136808;27;20535;-58
2022/08/31 01:34:23;;;;;;;2.53;1.67;;;15.50;99.90;;;;;;5136742;27;20714;-58
2022/08/31 01:36:51;;;;;;;1.50;1.30;;;15.50;99.90;;;;;;5136618;27;20475;-58
2022/08/31 01:39:19;;;;;;;2.20;1.27;;;15.40;99.90;;;;;;5136491;27;20503;-58
2022/08/31 01:41:47;;;;;;;1.33;1.23;;;15.30;99.90;;;;;;5136742;27;20445;-58
2022/08/31 01:44:16;;;;;;;1.40;1.30;;;15.20;99.90;;;;;;5136472;27;20440;-57
2022/08/31 01:46:43;;;;;;;1.30;1.10;;;15.10;99.90;;;;;;5136467;27;20549;-59
2022/08/31 01:49:09;;;;;;;4.80;2.20;;;14.90;99.90;;;;;;5136436;27;20471;-58
2022/08/31 01:51:36;;;;;;;3.30;1.20;;;14.90;99.90;;;;;;5136366;27;20518;-58
2022/08/31 01:54:03;;;;;;;2.90;1.43;;;14.90;99.90;;;;;;5136137;27;20451;-58
2022/08/31 01:56:33;;;;;;;1.77;1.33;;;14.90;99.90;;;;;;5136329;27;20453;-58
2022/08/31 01:59:00;;;;;;;1.20;1.10;;;15.00;99.90;;;;;;5136262;27;20518;-58
2022/08/31 02:01:30;;;;;;;2.27;1.57;;;15.00;99.90;;;;;;5136202;27;20533;-58
2022/08/31 02:03:57;;;;;;;1.47;1.33;;;15.00;99.90;;;;;;5136501;27;20803;-58
2022/08/31 02:06:24;;;;;;;4.30;1.60;;;14.90;99.90;;;;;;5135765;27;20823;-58
2022/08/31 02:08:50;;;;;;;3.13;1.30;;;14.90;99.90;;;;;;5136206;27;20443;-58
2022/08/31 02:11:17;;;;;;;2.17;1.47;;;14.70;99.90;;;;;;5136044;27;20877;-58
2022/08/31 02:13:44;;;;;;;2.70;1.40;;;14.80;99.90;;;;;;5135973;27;20451;-58
2022/08/31 02:16:12;;;;;;;2.00;1.50;;;14.80;99.90;;;;;;5135928;27;20452;-58
2022/08/31 02:18:38;;;;;;;3.13;1.73;;;14.90;99.90;;;;;;5135381;27;20452;-58
2022/08/31 02:21:05;;;;;;;2.10;1.30;;;14.90;99.90;;;;;;5135436;27;20455;-58
2022/08/31 02:23:32;;;;;;;1.40;1.30;;;15.00;99.90;;;;;;5135829;27;20444;-58
2022/08/31 02:25:58;;;;;;;2.50;1.37;;;15.00;99.90;;;;;;5135604;27;20441;-58
2022/08/31 02:28:25;;;;;;;2.57;1.80;;;15.00;99.90;;;;;;5135598;27;20527;-58
2022/08/31 02:30:51;;;;;;;1.60;1.40;;;15.00;99.90;;;;;;5135602;27;20448;-57
2022/08/31 02:33:19;;;;;;;1.70;1.30;;;15.10;99.90;;;;;;5135479;27;20451;-58
2022/08/31 02:35:45;;;;;;;1.87;1.53;;;15.20;99.90;;;;;;5135324;27;20487;-58
2022/08/31 02:38:12;;;;;;;2.33;1.03;;;15.20;99.90;;;;;;5135570;27;20811;-57
2022/08/31 02:40:40;;;;;;;3.50;1.60;;;15.30;99.90;;;;;;5135457;27;20445;-58
2022/08/31 02:43:07;;;;;;;1.87;1.23;;;15.30;99.90;;;;;;5135424;27;20501;-58
2022/08/31 02:45:34;;;;;;;2.57;1.70;;;15.40;99.90;;;;;;5135291;27;20490;-58
2022/08/31 02:48:01;;;;;;;1.10;1.00;;;15.40;99.90;;;;;;5134962;27;20489;-58
2022/08/31 02:50:29;;;;;;;1.20;1.10;;;15.40;99.90;;;;;;5135042;27;20969;-58
2022/08/31 02:52:55;;;;;;;2.77;1.60;;;15.50;99.90;;;;;;5135210;27;20536;-58
2022/08/31 02:55:22;;;;;;;1.37;1.27;;;15.40;99.90;;;;;;5135081;27;20444;-58
2022/08/31 02:57:49;;;;;;;2.00;1.23;;;15.50;99.90;;;;;;5134939;27;21007;-58
2022/08/31 03:00:16;;;;;;;2.20;1.30;;;15.50;99.90;;;;;;5134846;27;20929;-58
2022/08/31 03:02:43;;;;;;;1.50;1.13;;;15.50;99.90;;;;;;5134852;27;20436;-58
2022/08/31 03:05:11;;;;;;;1.63;1.30;;;15.50;99.90;;;;;;5135004;27;20441;-58
2022/08/31 03:07:39;;;;;;;1.87;1.30;;;15.50;99.90;;;;;;5134891;27;20874;-58
2022/08/31 03:10:08;;;;;;;2.70;1.33;;;15.50;99.90;;;;;;5134828;27;20872;-58
2022/08/31 03:12:36;;;;;;;3.40;1.77;;;15.40;99.90;;;;;;5134661;27;20939;-58
2022/08/31 03:15:02;;;;;;;1.20;1.10;;;15.30;99.90;;;;;;5134530;27;20445;-58
2022/08/31 03:17:29;;;;;;;3.33;1.30;;;15.30;99.90;;;;;;5134515;27;20448;-58
2022/08/31 03:20:01;;;;;;;1.50;1.30;;;15.20;99.90;;;;;;5134732;27;20807;-58
2022/08/31 03:22:28;;;;;;;2.83;2.00;;;15.00;99.90;;;;;;5134655;27;20480;-58
2022/08/31 03:24:55;;;;;;;2.40;1.30;;;14.90;99.90;;;;;;5134606;27;20816;-58
2022/08/31 03:27:23;;;;;;;1.60;1.50;;;14.90;99.90;;;;;;5134522;27;20542;-57
2022/08/31 03:29:50;;;;;;;3.10;2.10;;;14.90;99.90;;;;;;5134870;27;20481;-58
2022/08/31 03:32:16;;;;;;;6.37;1.87;;;14.90;99.90;;;;;;5133550;27;20493;-58
2022/08/31 03:34:43;;;;;;;2.47;1.53;;;14.90;99.90;;;;;;5134252;27;20441;-59
2022/08/31 03:37:09;;;;;;;3.63;1.77;;;14.90;99.90;;;;;;5134376;27;20451;-59
2022/08/31 03:39:36;;;;;;;1.50;1.40;;;14.90;99.90;;;;;;5134353;27;20440;-58
2022/08/31 03:42:05;;;;;;;3.83;1.20;;;14.80;99.90;;;;;;5134260;27;20528;-58
2022/08/31 03:44:32;;;;;;;1.50;1.40;;;14.90;99.90;;;;;;5134077;27;20497;-58
2022/08/31 03:46:59;;;;;;;4.70;1.40;;;14.90;99.90;;;;;;5134073;27;21053;-59
2022/08/31 03:49:26;;;;;;;2.10;1.63;;;15.10;99.90;;;;;;5134281;27;20807;-58
2022/08/31 03:51:53;;;;;;;2.67;1.40;;;15.10;99.90;;;;;;5134167;27;20444;-59
2022/08/31 03:54:19;;;;;;;3.03;1.60;;;15.10;99.90;;;;;;5134027;27;20539;-58
2022/08/31 03:56:46;;;;;;;2.17;1.50;;;15.20;99.90;;;;;;5134390;27;20474;-59
2022/08/31 03:59:14;;;;;;;5.57;2.47;;;15.30;99.90;;;;;;5133913;27;20452;-59
2022/08/31 04:01:41;;;;;;;2.47;1.23;;;15.30;99.90;;;;;;5134091;27;20800;-59
2022/08/31 04:04:08;;;;;;;5.63;2.13;;;15.40;99.90;;;;;;5133991;27;20834;-59
2022/08/31 04:06:35;;;;;;;2.90;1.60;;;15.40;99.90;;;;;;5133773;27;20455;-59
2022/08/31 04:09:01;;;;;;;1.87;1.50;;;15.40;99.90;;;;;;5133756;27;20490;-59
2022/08/31 04:11:28;;;;;;;3.13;1.80;;;15.50;99.90;;;;;;5133766;27;20559;-59
2022/08/31 04:13:54;;;;;;;1.50;1.30;;;15.60;99.90;;;;;;5133967;28;20448;-59
2022/08/31 04:16:22;;;;;;;3.80;1.93;;;15.60;99.90;;;;;;5133910;28;20452;-59
2022/08/31 04:18:49;;;;;;;6.80;2.10;;;15.70;99.90;;;;;;5133682;28;20448;-59
2022/08/31 04:21:19;;;;;;;3.80;1.83;;;15.70;99.90;;;;;;5133802;28;20455;-59
2022/08/31 04:23:46;;;;;;;2.13;1.40;;;15.80;99.90;;;;;;5133630;28;20448;-59
2022/08/31 04:26:17;;;;;;;1.63;1.33;;;15.80;99.90;;;;;;5133545;28;20441;-59
2022/08/31 04:28:44;;;;;;;4.03;1.60;;;15.80;99.90;;;;;;5133648;28;20486;-59
2022/08/31 04:31:11;;;;;;;3.13;1.53;;;15.90;99.90;;;;;;5133798;28;20448;-59
2022/08/31 04:33:40;;;;;;;2.90;1.60;;;15.90;99.90;;;;;;5133731;28;20450;-59
2022/08/31 04:36:07;;;;;;;2.00;1.80;;;15.90;99.90;;;;;;5133526;28;20455;-59
2022/08/31 04:38:34;;;;;;;9.23;1.57;;;16.00;99.90;;;;;;5133467;28;20448;-59
2022/08/31 04:41:04;;;;;;;1.30;1.20;;;16.00;99.90;;;;;;5133761;28;20444;-59
2022/08/31 04:43:30;;;;;;;3.77;1.80;;;16.10;99.90;;;;;;5136458;27;20540;-59
2022/08/31 04:45:57;;;;;;;2.10;1.67;;;16.10;99.90;;;;;;5137440;27;20935;-59
2022/08/31 04:48:23;;;;;;;3.60;1.50;;;16.20;99.90;;;;;;5137312;27;20587;-59
2022/08/31 04:50:51;;;;;;;1.60;1.50;;;16.10;99.90;;;;;;5137552;27;20450;-59
2022/08/31 04:53:17;;;;;;;3.40;1.90;;;16.10;99.90;;;;;;5137278;27;20484;-59
2022/08/31 04:55:44;;;;;;;2.10;1.50;;;16.10;99.90;;;;;;5137500;27;20539;-59
2022/08/31 04:58:12;;;;;;;2.30;1.50;;;16.10;99.90;;;;;;5137390;27;20444;-59
2022/08/31 05:00:41;;;;;;;7.80;2.13;;;16.00;99.90;;;;;;5137334;27;20447;-59
2022/08/31 05:03:08;;;;;;;4.80;1.83;;;16.00;99.90;;;;;;5137205;27;20440;-58
2022/08/31 05:05:37;;;;;;;2.00;1.50;;;15.70;99.90;;;;;;5136975;27;20444;-58
2022/08/31 05:08:06;;;;;;;4.20;1.60;;;15.50;99.90;;;;;;5137019;27;20501;-59
2022/08/31 05:10:32;;;;;;;2.70;2.10;;;15.50;99.90;;;;;;5137168;27;20860;-59
2022/08/31 05:12:59;;;;;;;1.33;1.23;;;15.30;99.90;;;;;;5137094;27;20445;-58
2022/08/31 05:15:26;;;;;;;3.97;2.20;;;15.10;99.90;;;;;;5136912;27;20535;-58
2022/08/31 05:17:52;;;;;;;5.50;1.83;;;15.10;99.90;;;;;;5136879;27;20453;-59
2022/08/31 05:20:19;;;;;;;4.53;1.67;;;15.00;99.90;;;;;;5136846;27;20449;-59
2022/08/31 05:22:45;;;;;;;2.70;2.07;;;14.90;99.90;;;;;;5136763;27;20440;-59
2022/08/31 05:25:13;;;;;;;4.73;3.00;;;14.90;99.90;;;;;;5136634;27;20448;-59
2022/08/31 05:27:40;;;;;;;3.03;1.53;;;14.80;99.90;;;;;;5136671;27;20558;-59
2022/08/31 05:30:08;;;;;;;4.00;1.67;;;14.80;99.90;;;;;;5136618;27;20799;-58
2022/08/31 05:32:35;;;;;;;2.60;1.80;;;14.80;99.90;;;;;;5136499;27;20535;-57
2022/08/31 05:35:01;;;;;;;3.47;1.90;;;14.90;99.90;;;;;;5136815;27;20439;-59
2022/08/31 05:37:28;;;;;;;4.37;1.80;;;15.00;99.90;;;;;;5136637;27;20445;-59
2022/08/31 05:39:54;;;;;;;3.00;1.60;;;15.10;99.90;;;;;;5136431;27;20447;-59
2022/08/31 05:42:22;;;;;;;2.17;1.50;;;15.10;99.90;;;;;;5136486;27;20443;-58
2022/08/31 05:44:48;;;;;;;3.50;1.80;;;15.20;99.90;;;;;;5136097;27;20447;-59
2022/08/31 05:47:15;;;;;;;3.30;1.20;;;15.30;99.90;;;;;;5136011;27;20471;-59
2022/08/31 05:49:42;;;;;;;2.30;1.50;;;15.40;99.90;;;;;;5136108;27;20476;-59
2022/08/31 05:52:09;;;;;;;2.23;1.70;;;15.50;99.90;;;;;;5136258;27;20535;-59
2022/08/31 05:54:36;;;;;;;6.93;1.90;;;15.50;99.90;;;;;;5135145;27;20540;-59
2022/08/31 05:57:03;;;;;;;3.43;1.50;;;15.60;99.90;;;;;;5135862;27;20940;-58
2022/08/31 05:59:31;;;;;;;2.43;1.50;;;15.70;99.90;;;;;;5136027;27;20449;-59
2022/08/31 06:01:58;;;;;;;3.80;1.93;;;15.60;99.90;;;;;;5135945;27;20451;-59
2022/08/31 06:04:25;;;;;;;2.70;1.60;;;15.70;99.90;;;;;;5136085;27;20444;-59
2022/08/31 06:06:52;;;;;;;3.07;1.70;;;15.90;99.90;;;;;;5136043;27;20440;-58
2022/08/31 06:09:18;;;;;;;1.40;1.30;;;15.90;99.90;;;;;;5135902;27;20525;-59
2022/08/31 06:11:45;;;;;;;2.40;1.70;;;16.10;99.90;;;;;;5135978;27;20444;-59
2022/08/31 06:14:11;;;;;;;4.93;1.37;;;16.10;99.90;;;;;;5135705;27;20453;-58
2022/08/31 06:16:42;;;;;;;7.90;1.90;;;15.90;99.90;;;;;;5126345;27;20452;-59
2022/08/31 06:19:08;;;;;;;2.10;1.03;;;16.00;99.90;;;;;;5115275;28;20968;-59
2022/08/31 06:21:39;;;;;;;1.90;1.40;;;16.00;99.90;;;;;;5113936;28;20506;-59
2022/08/31 06:24:06;;;;;;;2.67;1.30;;;16.00;99.90;;;;;;5094664;28;20493;-59
2022/08/31 06:26:34;;;;;;;3.37;1.23;;;16.10;99.90;;;;;;5094458;28;20795;-59
2022/08/31 06:29:03;;;;;;;3.13;1.40;;;16.20;99.90;;;;;;5093869;28;20581;-59
2022/08/31 06:31:34;;;;;;;3.77;1.70;;;16.20;99.90;;;;;;5112449;28;20545;-59
2022/08/31 06:34:03;;;;;;;1.90;1.23;;;16.20;99.90;;;;;;5114831;28;20449;-59
2022/08/31 06:36:31;;;;;;;2.03;1.10;;;16.30;99.90;;;;;;5114769;28;20452;-59
2022/08/31 06:38:59;;;;;;;1.93;1.03;;;16.40;99.90;;;;;;5114677;28;20902;-58
2022/08/31 06:41:28;;;;;;;1.63;1.37;;;16.50;99.90;;;;;;5114677;28;20511;-59
2022/08/31 06:43:55;;;;;;;1.40;1.20;;;16.70;99.90;;;;;;5114776;28;20452;-59
2022/08/31 06:46:23;;;;;;;2.50;1.13;;;16.70;99.90;;;;;;5114666;28;21012;-59
2022/08/31 06:48:52;;;;;;;1.60;0.93;;;16.70;99.90;;;;;;5100866;28;20496;-58
2022/08/31 06:51:20;;;;;;;1.50;0.90;;;16.70;99.90;;;;;;5094166;28;20438;-59
2022/08/31 06:53:47;;;;;;;1.10;0.90;;;16.60;99.90;;;;;;5094101;28;20448;-59
2022/08/31 06:56:15;;;;;;;2.13;0.93;;;16.80;99.90;;;;;;5093987;28;20447;-58
2022/08/31 06:58:41;;;;;;;2.90;1.30;;;16.90;99.90;;;;;;5094047;28;20442;-59
2022/08/31 07:01:10;;;;;;;3.00;1.10;;;17.00;99.90;;;;;;5102801;28;20809;-59
2022/08/31 07:03:38;;;;;;;2.20;1.20;;;17.10;99.90;;;;;;5093727;28;20809;-58
2022/08/31 07:06:07;;;;;;;1.43;0.80;;;17.20;99.90;;;;;;5093454;28;20489;-59
2022/08/31 07:08:36;;;;;;;1.30;0.90;;;17.20;99.90;;;;;;5093472;28;20475;-59
2022/08/31 07:11:03;;;;;;;1.30;1.10;;;17.20;99.90;;;;;;5093883;28;20545;-58
2022/08/31 07:13:30;;;;;;;4.10;0.90;;;17.30;99.90;;;;;;5106264;28;20442;-59
2022/08/31 07:16:04;;;;;;;2.70;0.90;;;17.20;99.90;;;;;;5113377;28;21015;-59
2022/08/31 07:18:31;;;;;;;2.33;1.10;;;17.30;99.90;;;;;;5113543;28;20560;-59
2022/08/31 07:21:08;;;;;;;98.10;14.27;;;17.50;99.90;;;;;;5113322;28;20442;-59
2022/08/31 07:23:36;;;;;;;12.87;1.90;;;17.60;99.90;;;;;;5111058;28;20445;-60
2022/08/31 07:26:05;;;;;;;4.60;1.43;;;17.60;99.90;;;;;;5113495;28;20442;-59
2022/08/31 07:28:33;;;;;;;1.40;0.90;;;17.50;99.90;;;;;;5113237;28;20465;-56
2022/08/31 07:31:01;;;;;;;2.40;0.90;;;17.60;99.90;;;;;;5113265;28;20528;-54
2022/08/31 07:33:28;;;;;;;2.00;1.00;;;17.80;99.90;;;;;;5113046;28;20438;-55
2022/08/31 07:35:54;;;;;;;9.30;2.40;;;17.80;99.90;;;;;;5113188;28;20445;-54
2022/08/31 07:43:58;;;;;;;2.73;1.40;;;18.00;99.90;;;;;;5093005;28;20519;-56
2022/08/31 07:46:28;;;;;;;2.60;0.90;;;18.40;99.90;;;;;;5093552;28;20438;-56
2022/08/31 07:48:55;;;;;;;1.40;1.17;;;18.30;99.90;;;;;;5092737;28;20909;-56
2022/08/31 07:51:22;;;;;;;1.00;0.90;;;18.30;99.90;;;;;;5103756;28;20536;-56
2022/08/31 07:53:48;;;;;;;1.43;0.90;;;18.50;99.90;;;;;;5112843;28;20438;-55
2022/08/31 07:56:18;;;;;;;2.70;1.30;;;18.40;99.90;;;;;;5112702;28;20941;-54
2022/08/31 07:58:46;;;;;;;1.00;0.80;;;18.30;99.90;;;;;;5113094;28;20445;-55
2022/08/31 08:01:13;;;;;;;1.07;0.97;;;18.40;99.90;;;;;;5113448;28;20452;-56
2022/08/31 08:03:42;;;;;;;2.60;1.00;;;18.50;99.90;;;;;;5113355;28;20457;-54
2022/08/31 08:06:11;;;;;;;2.23;1.20;;;18.60;99.90;;;;;;5113212;28;20450;-55
2022/08/31 08:08:41;;;;;;;1.70;0.97;;;18.70;99.90;;;;;;5113143;28;20481;-55
2022/08/31 08:11:08;;;;;;;1.33;1.07;;;18.60;99.90;;;;;;5112997;28;20908;-54
2022/08/31 08:13:36;;;;;;;1.30;0.90;;;18.60;99.90;;;;;;5113300;28;20536;-56
2022/08/31 08:16:03;;;;;;;0.93;0.83;;;18.60;99.90;;;;;;5113052;28;20449;-57
2022/08/31 08:18:29;;;;;;;1.13;1.03;;;18.80;99.90;;;;;;5118870;28;20584;-54
2022/08/31 08:20:56;;;;;;;2.07;0.90;;;19.00;99.90;;;;;;5119933;27;20472;-55
2022/08/31 08:23:22;;;;;;;1.67;0.80;;;19.10;99.90;;;;;;5119865;28;20981;-57
2022/08/31 08:25:50;;;;;;;2.53;0.97;;;19.10;99.90;;;;;;5119824;28;20481;-56
2022/08/31 08:28:18;;;;;;;8.60;1.10;;;19.20;99.90;;;;;;5119832;28;20445;-56
2022/08/31 08:30:49;;;;;;;1.00;0.70;;;19.10;99.90;;;;;;5119905;28;20485;-56
2022/08/31 08:33:16;;;;;;;0.90;0.80;;;19.20;99.90;;;;;;5119832;28;20537;-56
2022/08/31 08:35:43;;;;;;;4.23;1.00;;;19.10;99.90;;;;;;5104408;28;20454;-62
2022/08/31 08:38:10;;;;;;;2.73;0.90;;;19.30;99.90;;;;;;5117817;28;20448;-59
2022/08/31 08:40:41;;;;;;;0.90;0.70;;;19.30;99.90;;;;;;5109617;28;20453;-60
2022/08/31 08:43:09;;;;;;;1.20;0.87;;;19.20;99.90;;;;;;5107672;28;20965;-60
2022/08/31 08:45:35;;;;;;;1.00;0.90;;;19.20;99.90;;;;;;5117878;28;20451;-60
2022/08/31 08:48:11;;;;;;;1.53;1.07;;;19.30;99.90;;;;;;5119354;28;20816;-60
2022/08/31 08:50:39;;;;;;;1.27;1.10;;;19.50;99.90;;;;;;5119383;28;20481;-59
2022/08/31 08:53:09;;;;;;;1.10;0.90;;;19.30;99.90;;;;;;5119502;28;20441;-59
2022/08/31 08:55:38;;;;;;;1.53;0.80;;;19.30;99.90;;;;;;5119362;28;20986;-60
2022/08/31 08:58:06;;;;;;;2.10;0.90;;;19.30;99.90;;;;;;5100849;28;20548;-59
2022/08/31 09:00:33;;;;;;;0.97;0.80;;;19.30;99.90;;;;;;5106999;28;20445;-59
2022/08/31 09:03:06;;;;;;;0.70;0.70;;;19.50;99.90;;;;;;5119495;28;20451;-61
2022/08/31 09:05:48;;;;;;;1.20;0.90;;;19.50;99.90;;;;;;5119682;28;20498;-59
2022/08/31 09:08:46;;;;;;;0.80;0.63;;;19.50;99.90;;;;;;5119539;28;20441;-59
2022/08/31 09:11:19;;;;;;;1.53;0.67;;;19.60;99.90;;;;;;5119339;28;20535;-60
2022/08/31 09:14:08;;;;;;;0.80;0.70;;;19.50;99.90;;;;;;5111595;28;20460;-61
2022/08/31 09:16:43;;;;;;;2.43;0.90;;;19.60;99.90;;;;;;5099224;28;20563;-61
2022/08/31 09:19:14;;;;;;;2.23;0.90;;;19.70;99.90;;;;;;5099077;28;20449;-60
2022/08/31 09:21:45;;;;;;;1.40;0.80;;;19.70;99.90;;;;;;5099064;28;20446;-68
2022/08/31 09:24:14;;;;;;;3.80;1.30;;;19.50;99.90;;;;;;5098914;28;20455;-60
2022/08/31 09:26:54;;;;;;;13.60;1.63;;;19.60;99.90;;;;;;5099039;28;20445;-60
2022/08/31 09:29:23;;;;;;;1.63;1.00;;;19.50;99.90;;;;;;5102131;28;20519;-60
2022/08/31 09:32:00;;;;;;;1.63;0.90;;;19.80;99.90;;;;;;5099303;28;20454;-60
2022/08/31 09:34:31;;;;;;;2.03;1.20;;;19.80;99.90;;;;;;5095512;28;20817;-58
2022/08/31 09:37:13;;;;;;;0.87;0.70;;;19.80;99.90;;;;;;5095654;28;20450;-57
2022/08/31 09:39:40;;;;;;;1.67;1.10;;;20.00;99.90;;;;;;5095654;28;20448;-59
2022/08/31 09:42:18;;;;;;;1.83;1.20;;;19.90;99.90;;;;;;5095567;28;20677;-59
2022/08/31 09:44:48;;;;;;;1.67;0.90;;;20.10;99.90;;;;;;5095272;28;20564;-58
2022/08/31 09:47:47;;;;;;;3.80;0.90;;;20.10;99.90;;;;;;5108589;28;20648;-60
2022/08/31 09:50:25;;;;;;;1.20;0.90;;;20.20;99.90;;;;;;5095207;28;20891;-60
2022/08/31 09:56:04;;;;;;;1.67;0.97;;;20.10;99.90;;;;;;5095343;28;20460;-64
2022/08/31 09:58:32;;;;;;;2.53;0.83;;;20.10;99.90;;;;;;5095166;28;20455;-64
2022/08/31 10:01:12;;;;;;;0.87;0.70;;;20.10;99.90;;;;;;5095112;28;20455;-64
2022/08/31 10:03:42;;;;;;;2.03;1.00;;;20.40;99.90;;;;;;5101374;28;20801;-64
2022/08/31 10:06:36;;;;;;;2.40;0.90;;;20.50;99.90;;;;;;5103858;28;20523;-55
2022/08/31 10:09:08;;;;;;;1.23;0.70;;;20.60;99.90;;;;;;5110559;28;20470;-59
2022/08/31 10:11:37;;;;;;;1.43;0.90;;;20.80;99.90;;;;;;5104142;28;20446;-60
2022/08/31 10:14:13;;;;;;;2.10;1.10;;;21.10;99.90;;;;;;5096813;28;20454;-60
2022/08/31 10:16:46;;;;;;;2.50;1.03;;;21.30;99.90;;;;;;5095171;28;20450;-62
2022/08/31 10:19:18;;;;;;;3.90;0.97;;;21.60;99.90;;;;;;5104078;28;21260;-58
2022/08/31 10:21:50;;;;;;;2.03;0.87;;;21.30;99.90;;;;;;5105463;28;20524;-59
2022/08/31 10:24:26;;;;;;;0.90;0.80;;;21.60;99.90;;;;;;5104325;28;20451;-57
2022/08/31 10:27:01;;;;;;;1.53;0.90;;;21.40;99.90;;;;;;5102138;28;20511;-57
2022/08/31 10:29:34;;;;;;;0.97;0.80;;;21.40;99.90;;;;;;5095543;28;20539;-58
2022/08/31 10:32:17;;;;;;;2.83;1.00;;;21.30;99.90;;;;;;5094567;28;20534;-59
2022/08/31 10:35:07;;;;;;;1.87;0.80;;;21.50;99.90;;;;;;5093916;28;20797;-60
2022/08/31 10:37:43;;;;;;;2.00;1.00;;;21.60;99.90;;;;;;5105795;28;20458;-60
2022/08/31 10:40:16;;;;;;;4.73;0.90;;;21.50;99.90;;;;;;5093998;28;20495;-62
2022/08/31 10:42:48;;;;;;;2.27;1.10;;;21.90;99.90;;;;;;5094240;28;20453;-60
2022/08/31 10:45:21;;;;;;;1.63;0.80;;;22.00;99.90;;;;;;5094571;28;20455;-60
2022/08/31 10:47:49;;;;;;;4.17;0.83;;;21.70;99.90;;;;;;5094931;28;20470;-61
2022/08/31 10:50:23;;;;;;;1.00;0.70;;;21.40;99.90;;;;;;5104738;28;20479;-61
2022/08/31 10:53:04;;;;;;;2.07;0.83;;;21.30;99.90;;;;;;5114538;28;20468;-60
2022/08/31 10:55:38;;;;;;;2.30;0.97;;;21.40;99.90;;;;;;5096550;28;20548;-61
2022/08/31 10:58:19;;;;;;;1.27;0.80;;;21.20;99.90;;;;;;5110650;28;20457;-62
2022/08/31 11:00:52;;;;;;;1.20;0.80;;;21.30;99.90;;;;;;5093382;28;20457;-63
2022/08/31 11:03:39;;;;;;;2.23;0.77;;;21.10;99.90;;;;;;5093256;28;21028;-60
2022/08/31 11:06:12;;;;;;;1.07;1.00;;;21.00;99.90;;;;;;5093120;28;20457;-60
2022/08/31 11:08:48;;;;;;;3.37;1.00;;;21.30;99.90;;;;;;5093976;28;20474;-59
2022/08/31 11:11:23;;;;;;;1.07;0.80;;;21.90;99.90;;;;;;5101252;28;20477;-59
2022/08/31 11:14:08;;;;;;;1.20;0.93;;;22.10;99.90;;;;;;5106130;28;20453;-58
2022/08/31 11:16:57;;;;;;;3.67;1.10;;;22.00;99.90;;;;;;5114088;28;20442;-59
2022/08/31 11:19:49;;;;;;;2.33;0.90;;;22.00;99.90;;;;;;5114244;28;20458;-59
2022/08/31 11:22:33;;;;;;;4.20;0.87;;;22.00;99.90;;;;;;5113973;28;20960;-58
2022/08/31 11:25:17;;;;;;;1.97;0.80;;;21.60;99.90;;;;;;5113726;28;20876;-58
2022/08/31 11:27:49;;;;;;;3.00;0.80;;;21.60;99.90;;;;;;5114057;28;20471;-58
2022/08/31 11:30:22;;;;;;;1.00;0.90;;;21.70;99.90;;;;;;5113784;28;20477;-58
2022/08/31 11:32:52;;;;;;;1.33;0.80;;;22.00;99.90;;;;;;5113821;28;20460;-59
2022/08/31 11:35:58;;;;;;;2.20;0.83;;;22.10;99.90;;;;;;5113535;28;20925;-57
2022/08/31 11:38:43;;;;;;;0.90;0.70;;;22.00;99.90;;;;;;5113400;28;20472;-58
2022/08/31 11:41:34;;;;;;;2.70;0.80;;;21.60;99.90;;;;;;5113671;28;21031;-58
2022/08/31 11:44:03;;;;;;;0.90;0.80;;;21.70;99.90;;;;;;5113831;28;20889;-59
2022/08/31 11:47:07;;;;;;;1.87;1.13;;;21.80;99.90;;;;;;5113527;28;20573;-58
2022/08/31 11:49:44;;;;;;;0.90;0.80;;;22.10;99.90;;;;;;5113342;28;20602;-59
2022/08/31 11:52:28;;;;;;;1.30;0.70;;;21.60;99.90;;;;;;5112797;28;20487;-58
2022/08/31 11:55:01;;;;;;;1.83;0.93;;;22.00;99.90;;;;;;5113483;28;20524;-59
2022/08/31 11:57:31;;;;;;;1.23;0.70;;;22.00;99.90;;;;;;5113386;28;20502;-58
2022/08/31 11:59:59;;;;;;;2.10;1.10;;;21.70;99.90;;;;;;5113161;28;20937;-58
2022/08/31 12:02:44;;;;;;;1.10;1.00;;;21.70;99.90;;;;;;5113282;28;20533;-58
2022/08/31 12:05:11;;;;;;;1.60;0.70;;;21.70;99.90;;;;;;5113397;28;20449;-58
2022/08/31 12:07:45;;;;;;;1.80;0.90;;;21.80;99.90;;;;;;5113581;28;20936;-58
2022/08/31 12:10:34;;;;;;;3.90;0.70;;;21.70;99.90;;;;;;5113105;28;20469;-58
2022/08/31 12:13:17;;;;;;;0.73;0.70;;;22.00;99.90;;;;;;5113288;28;20543;-59
2022/08/31 12:16:26;;;;;;;0.93;0.70;;;22.00;99.90;;;;;;5113433;28;20541;-59
2022/08/31 12:25:17;;;;;;;0.90;0.80;;;22.10;99.90;;;;;;5113202;28;20433;-58
2022/08/31 12:27:57;;;;;;;1.57;0.70;;;22.10;99.90;;;;;;5113292;28;20790;-58
2022/08/31 12:30:27;;;;;;;2.67;0.80;;;22.20;99.90;;;;;;5112894;28;21005;-58
2022/08/31 12:33:00;;;;;;;0.90;0.77;;;22.10;99.90;;;;;;5113039;28;20442;-59
2022/08/31 12:35:29;;;;;;;1.00;0.87;;;22.20;99.90;;;;;;5112921;28;20593;-58
2022/08/31 12:38:01;;;;;;;1.13;0.80;;;22.10;99.90;;;;;;5112831;28;20463;-58
2022/08/31 12:40:31;;;;;;;3.07;0.93;;;22.20;99.90;;;;;;5113052;28;20473;-59
2022/08/31 12:43:04;;;;;;;0.83;0.63;;;22.20;99.90;;;;;;5112970;28;20450;-58
2022/08/31 12:46:04;;;;;;;2.93;1.00;;;22.20;99.90;;;;;;5112775;28;20883;-59
2022/08/31 12:48:55;;;;;;;1.73;0.93;;;22.20;99.90;;;;;;5099106;28;20481;-59
2022/08/31 12:51:34;;;;;;;3.20;0.90;;;22.40;99.90;;;;;;5112748;28;21011;-58
2022/08/31 12:54:40;;;;;;;1.20;1.00;;;22.40;99.90;;;;;;5112828;28;20449;-59
2022/08/31 12:57:14;;;;;;;2.40;0.70;;;22.20;99.90;;;;;;5078437;28;20445;-58
2022/08/31 12:59:48;;;;;;;1.53;1.23;;;22.30;99.90;;;;;;5112818;28;20451;-58
2022/08/31 13:02:19;;;;;;;1.67;0.90;;;22.30;99.90;;;;;;5112741;28;20449;-59
2022/08/31 13:04:47;;;;;;;0.87;0.80;;;22.50;99.90;;;;;;5115711;28;20539;-59
2022/08/31 13:07:19;;;;;;;2.50;1.53;;;22.70;99.90;;;;;;5116439;28;20936;-58
2022/08/31 13:09:45;;;;;;;1.93;0.80;;;22.50;99.90;;;;;;5116538;28;20502;-56
2022/08/31 13:12:22;;;;;;;1.47;0.83;;;21.80;99.90;;;;;;5116490;28;20445;-58
2022/08/31 13:14:49;;;;;;;2.00;1.27;;;22.00;99.90;;;;;;5116328;28;20456;-58
2022/08/31 13:17:20;;;;;;;1.83;0.80;;;22.00;99.90;;;;;;5116124;28;20449;-59
2022/08/31 13:19:51;;;;;;;1.33;0.70;;;22.00;99.90;;;;;;5116421;28;20450;-58
2022/08/31 13:22:27;;;;;;;3.03;1.00;;;22.20;99.90;;;;;;5116345;28;20449;-59